Time;durP1;ratioP1;P1;durP2;ratioP2;P2;SDS_P1;SDS_P2;PMS_P1;PMS_P2;Temp;Humidity;BMP_temperature;BMP_pressure;BME280_temperature;BME280_humidity;BME280_pressure;Samples;Min_cycle;Max_cycle;Signal;HPM_P1;HPM_P2
2022/01/21 00:01:45;;;;;;;;;4.50;2.75;;;;;7.22;57.40;103174.75;5095510;27;46222;-70
2022/01/21 00:04:11;;;;;;;;;7.00;5.25;;;;;7.20;57.26;103187.69;5097248;27;45277;-70
2022/01/21 00:06:38;;;;;;;;;8.00;6.00;;;;;7.22;57.70;103193.00;5099401;27;45529;-73
2022/01/21 00:09:09;;;;;;;;;6.50;6.00;;;;;7.19;57.95;103183.31;5107076;27;45514;-70
2022/01/21 00:11:38;;;;;;;;;5.50;5.25;;;;;7.19;57.99;103191.13;5098928;27;46061;-71
2022/01/21 00:14:06;;;;;;;;;7.50;5.75;;;;;7.19;58.03;103190.25;5100177;27;45483;-70
2022/01/21 00:16:38;;;;;;;;;9.50;6.75;;;;;7.15;58.06;103183.94;5117460;27;45364;-69
2022/01/21 00:19:12;;;;;;;;;9.75;6.75;;;;;7.14;58.18;103187.38;5097545;27;45718;-72
2022/01/21 00:32:59;;;;;;;;;7.50;6.00;;;;;7.04;58.11;103161.59;5066925;27;45969;-70
2022/01/21 00:35:27;;;;;;;;;11.00;7.00;;;;;7.08;57.91;103170.50;5092122;27;45555;-69
2022/01/21 00:37:53;;;;;;;;;8.25;6.50;;;;;7.07;58.69;103171.28;5094695;27;45506;-71
2022/01/21 00:40:22;;;;;;;;;9.50;7.00;;;;;7.04;58.04;103166.81;5094233;27;45471;-68
2022/01/21 00:45:33;;;;;;;;;8.00;6.50;;;;;6.89;58.44;103153.84;5105409;27;45304;-70
2022/01/21 00:47:59;;;;;;;;;8.25;7.75;;;;;7.00;59.10;103164.88;5094866;27;45902;-68
2022/01/21 00:50:24;;;;;;;;;10.00;7.75;;;;;7.03;58.43;103157.22;5105199;27;45562;-69
2022/01/21 00:52:50;;;;;;;;;6.75;6.75;;;;;6.85;59.15;103132.75;5088068;27;47002;-69
2022/01/21 00:55:16;;;;;;;;;7.00;7.00;;;;;7.06;58.12;103159.97;5106188;27;45546;-71
2022/01/21 00:57:44;;;;;;;;;6.00;6.00;;;;;7.06;58.36;103165.19;5095067;27;45461;-71
2022/01/21 01:00:12;;;;;;;;;6.50;6.50;;;;;7.09;58.29;103167.06;5094533;27;45451;-67
2022/01/21 01:02:39;;;;;;;;;8.00;7.00;;;;;7.08;58.59;103166.19;5095327;27;46485;-71
2022/01/21 01:05:07;;;;;;;;;6.00;5.00;;;;;7.09;58.23;103165.34;5097537;27;45549;-69
2022/01/21 01:07:36;;;;;;;;;12.50;7.50;;;;;6.99;58.51;103163.06;5094899;27;45645;-69
2022/01/21 01:10:16;;;;;;;;;7.00;5.25;;;;;7.06;58.71;103169.50;5110259;27;45525;-70
2022/01/21 01:12:55;;;;;;;;;4.00;4.00;;;;;7.03;58.53;103167.63;5104878;27;45356;-68
2022/01/21 01:20:53;;;;;;;;;12.00;7.00;;;;;6.79;58.34;103130.69;5096088;27;45280;-73
2022/01/21 01:23:38;;;;;;;;;10.25;8.00;;;;;6.92;58.72;103159.22;5097810;27;46837;-70
2022/01/21 01:28:50;;;;;;;;;8.50;6.25;;;;;6.89;59.29;103158.16;5111113;27;45621;-70
2022/01/21 01:31:15;;;;;;;;;10.00;7.25;;;;;6.90;58.89;103159.94;5103903;27;45416;-71
2022/01/21 01:33:42;;;;;;;;;9.50;6.75;;;;;6.58;58.56;103110.44;5104470;27;46252;-71
2022/01/21 01:36:08;;;;;;;;;11.75;8.00;;;;;6.85;58.54;103149.25;5093387;27;45519;-70
2022/01/21 01:41:06;;;;;;;;;7.25;6.00;;;;;6.77;58.84;103145.34;5113958;27;45337;-73
2022/01/21 01:51:44;;;;;;;;;9.75;7.25;;;;;6.66;58.71;103147.31;5122221;27;45423;-71
2022/01/21 01:54:13;;;;;;;;;7.00;5.25;;;;;6.67;59.21;103156.97;5096012;27;46886;-73
2022/01/21 01:56:44;;;;;;;;;11.00;7.75;;;;;6.68;59.36;103161.34;5110444;27;45519;-72
2022/01/21 01:59:09;;;;;;;;;7.75;6.50;;;;;6.62;59.41;103162.69;5120540;27;45377;-69
2022/01/21 02:01:35;;;;;;;;;8.25;6.00;;;;;6.50;59.12;103142.97;5082040;27;45517;-69
2022/01/21 02:04:01;;;;;;;;;9.50;7.25;;;;;6.61;59.17;103163.50;5097509;27;46103;-71
2022/01/21 02:06:26;;;;;;;;;10.00;6.00;;;;;6.67;59.45;103177.78;5078487;27;45697;-73
2022/01/21 02:08:52;;;;;;;;;10.25;8.00;;;;;6.65;59.55;103192.44;5096963;27;45463;-72
2022/01/21 02:11:18;;;;;;;;;8.00;7.00;;;;;6.56;59.23;103168.47;5097393;27;45379;-71
2022/01/21 02:13:48;;;;;;;;;9.00;7.00;;;;;6.64;59.82;103181.91;5107914;27;46084;-73
2022/01/21 02:21:41;;;;;;;;;9.00;8.25;;;;;6.54;59.95;103178.78;5096677;27;45362;-70
2022/01/21 02:24:11;;;;;;;;;6.50;6.50;;;;;6.58;59.46;103175.53;5096565;27;45347;-73
2022/01/21 02:26:38;;;;;;;;;11.50;7.25;;;;;6.53;60.08;103177.00;5097497;27;45611;-70
2022/01/21 02:29:06;;;;;;;;;8.75;5.75;;;;;6.54;59.92;103178.78;5099317;27;45702;-73
2022/01/21 02:31:33;;;;;;;;;9.75;8.00;;;;;6.58;60.15;103183.34;5096184;27;45334;-72
2022/01/21 02:34:00;;;;;;;;;6.25;6.00;;;;;6.51;59.55;103170.78;5096584;27;46179;-73
2022/01/21 02:36:27;;;;;;;;;9.50;6.25;;;;;6.25;59.82;103119.84;5095946;27;45513;-74
2022/01/21 02:38:53;;;;;;;;;5.00;4.50;;;;;6.58;59.94;103187.69;5095971;27;45649;-72
2022/01/21 02:41:19;;;;;;;;;9.50;7.00;;;;;6.45;59.36;103166.94;5103424;27;45494;-71
2022/01/21 02:43:45;;;;;;;;;10.25;5.50;;;;;6.54;59.77;103170.97;5116336;27;45613;-71
2022/01/21 02:46:11;;;;;;;;;7.00;5.00;;;;;6.55;59.97;103172.78;5100012;27;45369;-72
2022/01/21 02:48:38;;;;;;;;;6.00;5.25;;;;;6.53;60.12;103176.09;5116442;27;45398;-69
2022/01/21 02:51:13;;;;;;;;;8.75;7.00;;;;;6.42;60.20;103159.84;5099392;27;45356;-70
2022/01/21 02:54:04;;;;;;;;;10.50;5.25;;;;;6.50;60.38;103176.81;5120317;27;45285;-68
2022/01/21 02:56:27;;;;;;;;;11.50;7.00;;;;;6.41;60.03;103154.53;5116475;27;45374;-69
2022/01/21 02:58:53;;;;;;;;;7.50;7.50;;;;;6.45;60.27;103172.16;5116631;27;45602;-70
2022/01/21 03:01:19;;;;;;;;;7.00;5.00;;;;;6.49;60.37;103179.34;5117804;27;45398;-70
2022/01/21 03:03:46;;;;;;;;;8.75;8.00;;;;;6.46;60.07;103182.66;5116888;27;45395;-69
2022/01/21 03:06:15;;;;;;;;;5.25;5.25;;;;;6.36;59.90;103165.59;5103218;27;45441;-71
2022/01/21 03:08:42;;;;;;;;;9.25;6.75;;;;;6.44;60.03;103173.84;5096217;27;45451;-70
2022/01/21 03:11:08;;;;;;;;;9.50;7.50;;;;;6.42;60.07;103178.06;5097653;27;45482;-70
2022/01/21 03:13:34;;;;;;;;;8.00;7.75;;;;;6.30;60.64;103160.03;5095076;27;46477;-73
2022/01/21 03:15:59;;;;;;;;;7.50;5.00;;;;;6.40;60.73;103178.78;5095498;27;45444;-70
2022/01/21 03:18:25;;;;;;;;;7.50;6.00;;;;;6.22;60.11;103143.09;5095601;27;45494;-73
2022/01/21 03:20:51;;;;;;;;;9.50;6.00;;;;;6.39;59.95;103177.00;5077650;27;45437;-69
2022/01/21 03:23:19;;;;;;;;;8.75;6.75;;;;;6.16;60.81;103140.13;5077161;27;47143;-71
2022/01/21 03:25:46;;;;;;;;;5.25;4.00;;;;;6.28;59.92;103166.84;5095459;27;45861;-71
2022/01/21 03:28:14;;;;;;;;;10.75;6.25;;;;;6.30;60.46;103180.84;5095644;27;45574;-72
2022/01/21 03:30:40;;;;;;;;;6.00;6.00;;;;;6.14;60.24;103149.53;5096086;27;45339;-71
2022/01/21 03:33:06;;;;;;;;;11.50;5.00;;;;;6.29;60.99;103176.47;5095057;27;45503;-71
2022/01/21 03:35:33;;;;;;;;;10.00;7.25;;;;;6.33;60.25;103191.44;5077433;27;45392;-69
2022/01/21 03:37:59;;;;;;;;;7.00;5.00;;;;;6.34;60.21;103188.03;5096002;27;45424;-70
2022/01/21 03:40:25;;;;;;;;;7.25;7.00;;;;;6.34;60.63;103184.56;5095441;27;45475;-70
2022/01/21 03:42:50;;;;;;;;;7.75;6.75;;;;;6.07;60.24;103135.25;5076537;27;46692;-69
2022/01/21 03:45:16;;;;;;;;;7.00;6.00;;;;;6.34;60.74;103184.56;5094882;27;45439;-71
2022/01/21 03:47:43;;;;;;;;;9.00;6.25;;;;;6.00;59.63;103137.41;5095846;27;45370;-72
2022/01/21 03:50:30;;;;;;;;;7.75;5.00;;;;;6.32;60.42;103207.00;5096242;27;45340;-71
2022/01/21 03:52:56;;;;;;;;;8.50;6.75;;;;;6.29;60.77;103205.09;5095400;27;45377;-69
2022/01/21 03:55:22;;;;;;;;;9.50;7.50;;;;;6.02;60.29;103151.41;5094890;27;45432;-69
2022/01/21 03:57:47;;;;;;;;;11.00;8.50;;;;;6.33;60.71;103208.75;5076775;27;45414;-69
2022/01/21 04:00:18;;;;;;;;;9.00;7.00;;;;;6.33;60.15;103200.97;5075953;27;45303;-69
2022/01/21 04:02:44;;;;;;;;;5.25;1.50;;;;;6.40;60.86;103184.88;5094569;27;45421;-71
2022/01/21 04:05:10;;;;;;;;;7.00;5.75;;;;;6.44;60.05;103199.00;5094607;27;45396;-69
2022/01/21 04:07:36;;;;;;;;;8.50;6.00;;;;;6.30;60.16;103175.66;5076478;27;45354;-70
2022/01/21 04:10:03;;;;;;;;;10.75;6.75;;;;;6.40;59.81;103184.88;5095623;27;45425;-71
2022/01/21 04:12:29;;;;;;;;;7.50;5.00;;;;;6.49;60.62;103190.63;5094980;27;46525;-70
2022/01/21 04:14:56;;;;;;;;;9.75;6.75;;;;;6.49;60.35;103200.16;5094554;27;45400;-70
2022/01/21 04:17:23;;;;;;;;;8.25;6.00;;;;;6.49;59.45;103193.25;5094982;27;45328;-69
2022/01/21 04:19:48;;;;;;;;;10.50;6.50;;;;;6.54;60.47;103203.91;5095011;27;45571;-71
2022/01/21 04:22:14;;;;;;;;;9.50;6.00;;;;;6.50;59.88;103201.94;5094265;27;45451;-69
2022/01/21 04:24:40;;;;;;;;;9.25;6.25;;;;;6.49;60.01;103207.97;5094595;27;45343;-68
2022/01/21 04:27:06;;;;;;;;;7.00;6.50;;;;;6.43;60.46;103199.78;5094602;27;45289;-69
2022/01/21 04:29:31;;;;;;;;;7.00;6.00;;;;;6.45;60.32;103198.19;5094998;27;45445;-69
2022/01/21 04:31:57;;;;;;;;;8.50;5.00;;;;;6.51;60.18;103214.16;5094478;27;46175;-70
2022/01/21 04:34:22;;;;;;;;;6.25;5.00;;;;;6.36;59.62;103182.94;5094474;27;45496;-68
2022/01/21 04:36:48;;;;;;;;;7.00;7.00;;;;;6.51;60.17;103224.59;5094604;27;45418;-73
2022/01/21 04:39:21;;;;;;;;;7.75;5.50;;;;;6.53;60.59;103208.25;5094774;27;45289;-69
2022/01/21 04:49:40;;;;;;;;;5.00;4.50;;;;;6.54;59.48;103216.94;5095655;27;45450;-72
2022/01/21 04:52:06;;;;;;;;;6.25;5.00;;;;;6.53;60.26;103207.34;5095274;27;46387;-71
2022/01/21 04:54:33;;;;;;;;;9.50;7.00;;;;;6.40;60.58;103186.59;5094574;27;45569;-67
2022/01/21 04:57:01;;;;;;;;;10.25;6.50;;;;;6.56;59.75;103217.94;5094554;27;45475;-69
2022/01/21 04:59:27;;;;;;;;;11.75;6.75;;;;;6.32;60.19;103170.53;5094409;27;45713;-70
2022/01/21 05:01:53;;;;;;;;;9.75;7.00;;;;;6.49;59.66;103219.28;5096632;27;46426;-70
2022/01/21 05:04:19;;;;;;;;;10.25;5.25;;;;;6.49;59.56;103210.56;5094828;27;45761;-71
2022/01/21 05:06:47;;;;;;;;;8.75;6.75;;;;;6.50;59.82;103213.28;5076215;27;45363;-70
2022/01/21 05:09:16;;;;;;;;;6.75;6.00;;;;;6.54;60.13;103214.34;5094436;27;45294;-71
2022/01/21 05:11:46;;;;;;;;;8.00;6.00;;;;;6.20;60.03;103160.31;5094402;27;45562;-72
2022/01/21 05:14:22;;;;;;;;;9.00;6.00;;;;;6.47;59.91;103215.69;5097404;27;45474;-70
2022/01/21 05:17:00;;;;;;;;;8.75;7.00;;;;;6.57;59.72;103222.31;5097641;27;45384;-72
2022/01/21 05:19:26;;;;;;;;;9.00;7.00;;;;;6.36;60.21;103183.81;5098269;27;45454;-71
2022/01/21 05:21:52;;;;;;;;;6.00;5.75;;;;;6.37;59.76;103182.13;5097955;27;45571;-73
2022/01/21 05:24:22;;;;;;;;;11.00;7.00;;;;;6.58;60.12;103217.22;5098282;27;45417;-69
2022/01/21 05:26:54;;;;;;;;;7.75;5.00;;;;;6.47;59.53;103196.56;5099785;27;45452;-73
2022/01/21 05:29:22;;;;;;;;;7.50;5.75;;;;;6.36;59.72;103170.81;5098444;27;45227;-72
2022/01/21 05:31:48;;;;;;;;;7.25;4.25;;;;;6.61;59.96;103221.69;5096835;27;45977;-74
2022/01/21 05:34:14;;;;;;;;;5.50;5.00;;;;;6.54;60.28;103211.72;5096872;27;45307;-72
2022/01/21 05:36:41;;;;;;;;;9.75;6.25;;;;;6.62;59.89;103227.78;5098448;27;45506;-72
2022/01/21 05:39:08;;;;;;;;;7.00;6.50;;;;;6.60;59.24;103235.53;5102098;27;45339;-73
2022/01/21 05:41:33;;;;;;;;;7.75;5.75;;;;;6.57;60.28;103236.25;5110414;27;45523;-70
2022/01/21 05:44:03;;;;;;;;;8.75;6.00;;;;;6.61;59.72;103233.81;5118574;27;45503;-70
2022/01/21 05:46:53;;;;;;;;;6.75;5.75;;;;;6.43;59.66;103211.13;5121879;27;45528;-70
2022/01/21 05:49:15;;;;;;;;;6.25;5.25;;;;;6.59;59.45;103236.31;5120663;27;45513;-72
2022/01/21 05:51:43;;;;;;;;;6.75;6.50;;;;;6.50;59.91;103227.97;5117723;27;45392;-71
2022/01/21 05:54:10;;;;;;;;;8.00;6.25;;;;;6.59;59.64;103246.75;5120923;27;45304;-71
2022/01/21 05:56:37;;;;;;;;;5.00;2.00;;;;;6.54;59.46;103240.38;5117486;27;45250;-71
2022/01/21 05:59:07;;;;;;;;;8.00;5.00;;;;;6.42;59.57;103216.22;5118020;27;45547;-68
2022/01/21 06:01:34;;;;;;;;;7.50;5.00;;;;;6.59;59.81;103247.63;5118862;27;45510;-73
2022/01/21 06:04:03;;;;;;;;;7.25;6.00;;;;;6.54;59.61;103240.38;5119719;27;45369;-74
2022/01/21 06:06:30;;;;;;;;;7.75;5.25;;;;;6.46;59.99;103233.84;5108487;27;45306;-70
2022/01/21 06:08:56;;;;;;;;;6.25;5.00;;;;;6.55;59.42;103248.28;5101449;27;45530;-71
2022/01/21 06:11:22;;;;;;;;;5.25;4.50;;;;;6.56;59.55;103249.19;5121405;27;45469;-72
2022/01/21 06:13:50;;;;;;;;;7.75;5.50;;;;;6.59;59.76;103257.16;5106430;27;45534;-73
2022/01/21 06:16:17;;;;;;;;;8.50;6.50;;;;;6.59;59.65;103255.44;5096866;27;45436;-70
2022/01/21 06:18:43;;;;;;;;;6.00;5.00;;;;;6.62;59.18;103257.38;5098812;27;45444;-71
2022/01/21 06:21:09;;;;;;;;;5.75;5.00;;;;;6.62;59.62;103254.75;5116478;27;46285;-73
2022/01/21 06:23:35;;;;;;;;;5.25;3.75;;;;;6.43;59.61;103229.34;5117363;27;45459;-70
2022/01/21 06:26:00;;;;;;;;;8.50;5.75;;;;;6.62;59.62;103251.22;5117636;27;45524;-68
2022/01/21 06:28:26;;;;;;;;;7.50;4.75;;;;;6.62;59.52;103252.16;5116681;27;45707;-68
2022/01/21 06:30:52;;;;;;;;;7.00;6.00;;;;;6.50;59.67;103238.38;5116731;27;45977;-68
2022/01/21 06:33:20;;;;;;;;;7.00;4.50;;;;;6.56;59.77;103254.38;5119114;27;45489;-68
2022/01/21 06:35:50;;;;;;;;;8.25;5.25;;;;;6.54;59.98;103254.28;5118145;27;45303;-68
2022/01/21 06:38:17;;;;;;;;;6.00;4.00;;;;;6.54;60.05;103256.00;5116868;27;45491;-67
2022/01/21 06:40:42;;;;;;;;;5.50;4.25;;;;;6.41;60.17;103235.25;5116797;27;45763;-68
2022/01/21 06:43:08;;;;;;;;;7.25;6.75;;;;;6.46;60.35;103246.84;5116664;27;45539;-68
2022/01/21 06:45:34;;;;;;;;;5.50;5.50;;;;;6.46;59.67;103244.25;5116589;27;45354;-67
2022/01/21 06:47:59;;;;;;;;;5.00;4.00;;;;;6.20;59.80;103214.97;5117392;27;45658;-68
2022/01/21 06:50:26;;;;;;;;;6.00;5.00;;;;;6.48;60.62;103263.47;5116990;27;45463;-68
2022/01/21 06:52:51;;;;;;;;;5.00;5.00;;;;;6.43;60.45;103252.78;5117225;27;45389;-68
2022/01/21 06:55:17;;;;;;;;;7.75;6.00;;;;;6.47;60.19;103264.25;5120295;27;45233;-71
2022/01/21 06:57:43;;;;;;;;;8.50;5.25;;;;;6.49;60.12;103270.44;5116849;27;45463;-69
2022/01/21 07:00:13;;;;;;;;;7.00;5.00;;;;;6.43;59.82;103252.78;5118187;27;45963;-69
2022/01/21 07:02:39;;;;;;;;;8.00;8.00;;;;;6.53;59.71;103277.66;5120755;27;45418;-72
2022/01/21 07:05:06;;;;;;;;;8.25;7.00;;;;;6.54;59.37;103279.44;5117460;27;45343;-71
2022/01/21 07:07:32;;;;;;;;;8.25;7.75;;;;;6.32;60.04;103254.72;5116198;27;45454;-69
2022/01/21 07:10:00;;;;;;;;;4.75;3.00;;;;;6.45;59.90;103273.69;5116283;27;46192;-69
2022/01/21 07:12:25;;;;;;;;;6.75;6.75;;;;;6.48;60.00;103293.00;5115649;27;45844;-70
2022/01/21 07:14:51;;;;;;;;;6.00;5.00;;;;;6.36;59.86;103277.53;5116097;27;45305;-68
2022/01/21 07:17:17;;;;;;;;;6.50;5.25;;;;;6.39;60.41;103269.00;5116530;27;45410;-70
2022/01/21 07:19:42;;;;;;;;;9.50;6.50;;;;;6.50;60.20;103287.84;5097187;27;45592;-71
2022/01/21 07:22:08;;;;;;;;;3.50;2.00;;;;;6.49;60.31;103297.38;5115647;27;45552;-70
2022/01/21 07:24:33;;;;;;;;;9.50;6.00;;;;;6.43;60.35;103286.63;5115749;27;45839;-70
2022/01/21 07:26:59;;;;;;;;;9.00;5.25;;;;;6.35;60.35;103272.22;5097496;27;45422;-69
2022/01/21 07:29:24;;;;;;;;;8.00;6.00;;;;;6.32;59.80;103282.47;5115754;27;45394;-73
2022/01/21 07:31:53;;;;;;;;;9.25;6.00;;;;;6.41;60.38;103298.66;5115448;27;45740;-71
2022/01/21 07:34:19;;;;;;;;;10.25;7.00;;;;;6.49;60.35;103307.78;5096717;27;45398;-73
2022/01/21 07:36:45;;;;;;;;;11.25;6.25;;;;;6.49;60.57;103310.41;5115759;27;45395;-72
2022/01/21 07:39:10;;;;;;;;;9.00;7.50;;;;;6.44;60.67;103306.63;5119685;27;45948;-71
2022/01/21 07:41:36;;;;;;;;;6.50;5.00;;;;;6.37;59.92;103286.25;5119779;27;45406;-70
2022/01/21 07:44:02;;;;;;;;;8.00;7.50;;;;;6.39;60.15;103304.56;5120538;27;45216;-72
2022/01/21 07:46:27;;;;;;;;;9.00;7.00;;;;;6.43;60.14;103307.44;5120510;27;45280;-70
2022/01/21 07:48:56;;;;;;;;;7.75;6.00;;;;;6.43;60.29;103315.25;5116862;27;46239;-71
2022/01/21 07:51:22;;;;;;;;;9.25;7.50;;;;;6.49;59.74;103320.81;5096887;27;45590;-71
2022/01/21 07:53:48;;;;;;;;;9.75;7.50;;;;;6.40;60.50;103309.84;5098025;27;45371;-70
2022/01/21 07:56:14;;;;;;;;;10.25;8.00;;;;;6.46;60.40;103325.84;5100084;27;45596;-70
2022/01/21 07:58:39;;;;;;;;;11.50;7.00;;;;;6.43;60.29;103320.47;5115300;27;45332;-72
2022/01/21 08:01:05;;;;;;;;;8.75;8.50;;;;;6.46;60.50;103325.84;5115454;27;45686;-71
2022/01/21 08:03:30;;;;;;;;;8.50;8.00;;;;;6.49;60.27;103330.34;5115685;27;45505;-71
2022/01/21 08:05:56;;;;;;;;;11.00;8.00;;;;;6.53;60.42;103338.44;5119027;27;45519;-71
2022/01/21 08:08:24;;;;;;;;;12.00;7.25;;;;;6.54;60.62;103339.31;5119465;27;45831;-71
2022/01/21 08:10:49;;;;;;;;;7.50;7.00;;;;;6.54;60.09;103336.72;5117741;27;45444;-72
2022/01/21 08:13:15;;;;;;;;;11.75;8.50;;;;;6.59;60.62;103341.38;5114955;27;45805;-73
2022/01/21 08:15:40;;;;;;;;;12.50;9.00;;;;;6.59;60.40;103346.59;5115027;27;45446;-71
2022/01/21 08:18:06;;;;;;;;;10.25;9.00;;;;;6.62;60.91;103353.72;5118263;27;45334;-73
2022/01/21 08:20:32;;;;;;;;;9.50;7.50;;;;;6.65;60.53;103348.69;5118994;27;45475;-71
2022/01/21 08:22:58;;;;;;;;;13.00;8.00;;;;;6.66;60.30;103341.75;5110861;27;45435;-72
2022/01/21 08:25:24;;;;;;;;;7.00;7.00;;;;;6.58;60.89;103328.28;5099048;27;45388;-71
2022/01/21 08:27:49;;;;;;;;;10.50;7.75;;;;;6.67;60.15;103336.66;5096581;27;45565;-69
2022/01/21 08:30:16;;;;;;;;;13.00;8.00;;;;;6.70;60.31;103339.44;5094524;27;45455;-69
2022/01/21 08:32:41;;;;;;;;;9.00;6.75;;;;;6.76;59.83;103354.50;5094762;27;45282;-72
2022/01/21 08:35:08;;;;;;;;;10.50;7.25;;;;;6.61;59.82;103312.84;5098325;27;45361;-71
2022/01/21 08:39:37;;;;;;;;;10.00;8.50;;;;;6.56;60.50;103312.56;5001226;27;45476;-70
2022/01/21 08:42:06;;;;;;;;;11.75;10.25;;;;;6.70;59.93;103321.19;4968233;28;45414;-71
2022/01/21 08:44:32;;;;;;;;;13.75;10.00;;;;;6.83;60.18;103332.34;5045509;27;45471;-74
2022/01/21 08:46:57;;;;;;;;;14.00;10.50;;;;;6.83;59.94;103317.59;5003864;28;45452;-70
2022/01/21 08:49:23;;;;;;;;;13.00;8.00;;;;;6.96;59.50;103334.88;4987025;27;46099;-72
2022/01/21 08:51:54;;;;;;;;;13.50;8.50;;;;;6.74;59.60;103304.06;5002284;27;46007;-71
2022/01/21 08:54:33;;;;;;;;;10.75;9.50;;;;;7.02;59.82;103358.66;5000680;27;45522;-75
2022/01/21 08:56:59;;;;;;;;;15.50;11.00;;;;;7.05;59.64;103353.66;4980366;28;45532;-74
2022/01/21 08:59:28;;;;;;;;;10.25;6.00;;;;;7.04;59.85;103346.63;4975074;28;45572;-73
2022/01/21 09:01:54;;;;;;;;;14.00;11.00;;;;;6.82;59.56;103296.69;4968225;28;45583;-75
2022/01/21 09:04:20;;;;;;;;;13.50;9.50;;;;;7.14;59.37;103358.47;4967599;28;45868;-72
2022/01/21 09:06:46;;;;;;;;;8.75;8.00;;;;;6.96;59.65;103316.63;4972205;27;45597;-69
2022/01/21 09:09:12;;;;;;;;;8.25;7.25;;;;;7.06;59.30;103347.63;4985203;28;45366;-73
2022/01/21 09:11:38;;;;;;;;;14.75;10.00;;;;;7.10;59.42;103346.09;4987266;28;46039;-70
2022/01/21 09:14:03;;;;;;;;;11.00;7.25;;;;;7.18;59.18;103357.84;4971283;28;45465;-73
2022/01/21 09:16:33;;;;;;;;;14.75;9.25;;;;;7.19;59.51;103359.66;4970355;28;45541;-74
2022/01/21 09:19:02;;;;;;;;;8.00;5.00;;;;;6.93;59.02;103308.66;4991889;27;45971;-73
2022/01/21 09:21:34;;;;;;;;;13.50;9.00;;;;;7.26;59.03;103367.03;4967680;28;45315;-71
2022/01/21 09:24:00;;;;;;;;;11.00;8.75;;;;;7.28;59.10;103365.38;4967042;28;45479;-71
2022/01/21 09:26:27;;;;;;;;;12.50;10.00;;;;;7.31;59.13;103364.66;4967213;28;45350;-71
2022/01/21 09:28:53;;;;;;;;;11.00;8.75;;;;;7.18;59.31;103345.72;4966409;28;45358;-74
2022/01/21 09:31:20;;;;;;;;;9.25;7.75;;;;;7.24;59.29;103368.66;4965426;28;45429;-76
2022/01/21 09:33:47;;;;;;;;;11.50;9.00;;;;;7.32;59.08;103379.50;4984684;28;45743;-73
2022/01/21 09:36:13;;;;;;;;;13.50;9.75;;;;;7.29;58.76;103369.81;4984758;28;45504;-70
2022/01/21 09:38:41;;;;;;;;;13.75;10.50;;;;;7.37;59.13;103378.06;4986697;27;48209;-69
2022/01/21 09:41:09;;;;;;;;;18.00;10.75;;;;;7.25;59.29;103357.41;4985465;27;45422;-72
2022/01/21 09:43:37;;;;;;;;;18.75;11.00;;;;;7.11;58.67;103343.56;5000611;28;45425;-73
2022/01/21 09:46:07;;;;;;;;;14.00;10.25;;;;;7.42;58.86;103384.44;4986997;27;45521;-70
2022/01/21 09:48:49;;;;;;;;;12.25;9.75;;;;;7.39;58.55;103395.59;4986106;27;45581;-68
2022/01/21 09:51:16;;;;;;;;;14.50;10.75;;;;;6.86;58.50;103309.06;4961587;28;45810;-76
2022/01/21 09:53:42;;;;;;;;;15.50;12.00;;;;;7.34;58.73;103398.75;4955670;28;45529;-71
2022/01/21 09:56:09;;;;;;;;;11.75;7.00;;;;;6.99;59.10;103348.06;4962466;28;45468;-71
2022/01/21 09:58:34;;;;;;;;;10.50;9.00;;;;;7.23;58.66;103385.06;4974456;27;48108;-75
2022/01/21 10:01:06;;;;;;;;;12.00;10.00;;;;;7.40;58.53;103409.50;4972516;28;45525;-73
2022/01/21 10:03:35;;;;;;;;;11.50;8.75;;;;;7.14;58.42;103363.69;4977970;28;45374;-74
2022/01/21 10:06:03;;;;;;;;;10.75;9.00;;;;;7.37;59.14;103414.56;4978106;28;45323;-74
2022/01/21 10:08:29;;;;;;;;;12.00;9.00;;;;;7.46;59.03;103419.41;4971851;28;46161;-74
2022/01/21 10:10:54;;;;;;;;;12.75;9.50;;;;;7.47;59.31;103424.69;4973569;28;45613;-71
2022/01/21 10:13:21;;;;;;;;;12.00;10.50;;;;;7.44;58.81;103406.28;4973089;28;45452;-75
2022/01/21 10:15:48;;;;;;;;;13.50;11.00;;;;;7.58;58.50;103418.41;4988424;28;45499;-71
2022/01/21 10:18:17;;;;;;;;;11.75;8.50;;;;;7.60;58.87;103408.97;4973530;28;45411;-70
2022/01/21 10:21:07;;;;;;;;;9.25;8.50;;;;;7.41;58.54;103375.72;4971737;28;45935;-69
2022/01/21 10:23:38;;;;;;;;;1.25;0.00;;;;;7.70;58.45;103425.13;4973551;28;45673;-71
2022/01/21 10:26:08;;;;;;;;;12.25;10.50;;;;;7.71;59.04;103408.66;4988298;27;45343;-72
2022/01/21 10:28:35;;;;;;;;;10.75;10.00;;;;;7.81;58.61;103414.50;4973757;28;45384;-73
2022/01/21 10:31:13;;;;;;;;;11.00;9.50;;;;;7.87;57.70;103411.31;4973872;28;45366;-72
2022/01/21 10:33:49;;;;;;;;;11.75;10.00;;;;;7.93;57.73;103408.19;4972827;28;45923;-72
2022/01/21 10:36:21;;;;;;;;;9.75;9.75;;;;;8.01;57.31;103412.09;4973414;28;45736;-74
2022/01/21 10:38:50;;;;;;;;;11.50;10.50;;;;;7.79;57.43;103378.69;4986949;28;45578;-73
2022/01/21 10:41:19;;;;;;;;;11.25;9.50;;;;;8.03;57.31;103415.69;4993148;27;45724;-73
2022/01/21 10:44:01;;;;;;;;;18.25;11.25;;;;;8.11;57.58;103409.16;4993254;27;45373;-72
2022/01/21 10:46:27;;;;;;;;;15.75;13.25;;;;;8.15;57.15;103413.75;4997254;27;45510;-72
2022/01/21 10:49:05;;;;;;;;;15.75;10.50;;;;;8.18;57.36;103405.19;4997757;28;45441;-75
2022/01/21 10:51:34;;;;;;;;;12.00;9.75;;;;;8.20;57.42;103412.28;4994840;27;45391;-72
2022/01/21 10:54:19;;;;;;;;;14.75;12.00;;;;;8.09;57.21;103397.75;4991788;27;45527;-73
2022/01/21 10:57:10;;;;;;;;;19.25;17.50;;;;;8.17;57.55;103400.78;4991389;27;45623;-73
2022/01/21 10:59:58;;;;;;;;;11.75;11.25;;;;;8.14;57.47;103400.59;4992078;27;46363;-74
2022/01/21 11:02:45;;;;;;;;;16.25;13.50;;;;;8.12;57.37;103399.66;4995357;27;45429;-74
2022/01/21 11:05:26;;;;;;;;;18.00;14.75;;;;;8.07;57.32;103384.63;4992835;27;45454;-73
2022/01/21 11:08:03;;;;;;;;;16.50;13.50;;;;;8.14;57.67;103395.38;4992869;27;45335;-77
2022/01/21 11:10:35;;;;;;;;;17.25;12.00;;;;;8.14;57.46;103396.31;4992902;27;45676;-72
2022/01/21 11:13:18;;;;;;;;;15.75;13.00;;;;;8.15;57.75;103399.81;4990850;27;45807;-71
2022/01/21 11:16:09;;;;;;;;;18.75;12.00;;;;;8.17;57.42;103392.97;4995785;27;45462;-75
2022/01/21 11:18:48;;;;;;;;;14.00;12.75;;;;;8.17;57.56;103396.47;4991995;27;45361;-74
2022/01/21 11:21:14;;;;;;;;;14.50;14.00;;;;;8.17;57.68;103398.19;4974620;28;46887;-75
2022/01/21 11:23:41;;;;;;;;;15.25;12.00;;;;;8.13;57.30;103393.59;4991903;27;45317;-74
2022/01/21 11:26:12;;;;;;;;;11.00;6.50;;;;;8.10;57.10;103385.59;4992984;28;45303;-72
2022/01/21 11:28:46;;;;;;;;;17.75;12.00;;;;;8.11;57.42;103384.78;4995081;27;45411;-73
2022/01/21 11:31:17;;;;;;;;;17.75;12.00;;;;;7.84;56.95;103335.50;4991493;27;45542;-72
2022/01/21 11:33:43;;;;;;;;;13.00;10.00;;;;;7.93;57.30;103353.38;4974702;28;45708;-74
2022/01/21 11:36:09;;;;;;;;;11.75;10.50;;;;;8.25;57.09;103395.16;4995809;27;45303;-72
2022/01/21 11:38:44;;;;;;;;;11.50;9.75;;;;;8.10;64.11;103362.13;4995759;27;45433;-73
2022/01/21 11:41:13;;;;;;;;;15.00;13.75;;;;;8.16;57.78;103347.69;4992004;28;45417;-75
2022/01/21 11:43:47;;;;;;;;;19.00;15.75;;;;;8.42;57.13;103387.34;4991920;27;45497;-72
2022/01/21 11:46:20;;;;;;;;;22.75;14.50;;;;;8.21;57.24;103359.28;4994459;27;45541;-72
2022/01/21 11:49:09;;;;;;;;;23.50;15.50;;;;;8.45;57.76;103390.16;4992542;27;45278;-73
2022/01/21 11:51:37;;;;;;;;;16.25;12.50;;;;;8.51;57.96;103385.25;5020372;27;48004;-71
2022/01/21 11:54:13;;;;;;;;;17.25;11.25;;;;;8.52;58.14;103380.91;5050636;27;45604;-72
2022/01/21 11:56:57;;;;;;;;;11.75;11.50;;;;;8.48;59.32;103353.75;4991913;27;45347;-72
2022/01/21 12:02:21;;;;;;;;;16.75;14.50;;;;;8.85;59.44;103384.38;5081003;27;45908;-72
2022/01/21 12:04:57;;;;;;;;;15.00;11.75;;;;;8.85;58.61;103377.47;5039846;27;45506;-73
2022/01/21 12:07:35;;;;;;;;;18.00;13.50;;;;;9.05;59.02;103388.03;5002086;27;45350;-71
2022/01/21 12:10:04;;;;;;;;;16.25;13.75;;;;;8.98;57.78;103363.28;4997075;27;45579;-72
2022/01/21 12:12:45;;;;;;;;;18.00;16.75;;;;;9.10;56.67;103387.44;5074708;27;46261;-71
2022/01/21 12:15:22;;;;;;;;;17.75;13.25;;;;;9.00;56.51;103356.41;5034431;27;45558;-72
2022/01/21 12:18:19;;;;;;;;;19.50;13.00;;;;;9.09;55.79;103382.13;5071409;27;45809;-74
2022/01/21 12:20:48;;;;;;;;;12.75;10.25;;;;;8.91;55.53;103369.91;4991998;27;45445;-73
2022/01/21 12:23:20;;;;;;;;;10.75;10.75;;;;;8.72;55.56;103341.03;5033087;27;46809;-73
2022/01/21 12:26:20;;;;;;;;;14.50;12.75;;;;;8.92;55.72;103378.63;4976380;27;45792;-74
2022/01/21 12:29:12;;;;;;;;;13.00;10.75;;;;;8.84;55.61;103359.97;5018768;28;45362;-71